Аэропорт: Нальчик. Нальчик

ICAO: URMN

METAR:
2019-09-21 16:00:00
URMN 211600Z 00000MPS 9999 SCT///CB OVC/// 10/08 Q1017 R24/210155 NOSIG RMK QFE726
METAR:
2019-09-21 14:00:00
TAF URMN 211400Z 2115/2124 24003MPS 9999 BKN015CB TEMPO 2115/2121 3100 -SHRA BR SCT005 BKN015CB